Time;durP1;ratioP1;P1;durP2;ratioP2;P2;SDS_P1;SDS_P2;PMS_P1;PMS_P2;Temp;Humidity;BMP_temperature;BMP_pressure;BME280_temperature;BME280_humidity;BME280_pressure;Samples;Min_cycle;Max_cycle;Signal;HPM_P1;HPM_P2
2024/03/26 00:00:50;;;;;;;5.03;2.58;;;;;;;;;;5051160;28;20044;-64
2024/03/26 00:03:16;;;;;;;7.93;3.03;;;;;;;;;;5036641;28;20544;-64
2024/03/26 00:05:42;;;;;;;4.53;2.75;;;;;;;;;;5040277;28;20025;-64
2024/03/26 00:08:08;;;;;;;7.97;3.30;;;;;;;;;;5038972;28;20078;-64
2024/03/26 00:10:35;;;;;;;9.98;3.83;;;;;;;;;;5038495;28;20029;-65
2024/03/26 00:13:01;;;;;;;3.30;2.75;;;;;;;;;;5036109;28;20055;-64
2024/03/26 00:15:27;;;;;;;2.58;2.38;;;;;;;;;;5042746;28;20043;-65
2024/03/26 00:17:53;;;;;;;6.43;2.42;;;;;;;;;;5042568;28;20124;-64
2024/03/26 00:20:19;;;;;;;3.17;2.40;;;;;;;;;;5039787;28;20037;-64
2024/03/26 00:22:45;;;;;;;6.72;2.70;;;;;;;;;;5036903;28;20030;-64
2024/03/26 00:25:12;;;;;;;4.82;2.78;;;;;;;;;;5043148;28;20177;-64
2024/03/26 00:27:38;;;;;;;4.97;3.00;;;;;;;;;;5045269;28;20080;-69
2024/03/26 00:30:04;;;;;;;2.67;2.30;;;;;;;;;;5040128;28;20429;-64
2024/03/26 00:32:30;;;;;;;5.45;3.47;;;;;;;;;;5046012;28;20056;-64
2024/03/26 00:34:56;;;;;;;5.97;4.15;;;;;;;;;;5032403;28;20434;-65
2024/03/26 00:37:23;;;;;;;4.07;2.63;;;;;;;;;;5038450;28;20060;-64
2024/03/26 00:39:49;;;;;;;4.18;2.90;;;;;;;;;;5046248;28;20048;-64
2024/03/26 00:42:15;;;;;;;4.38;2.25;;;;;;;;;;5038380;28;20033;-64
2024/03/26 00:44:41;;;;;;;3.88;2.95;;;;;;;;;;5033509;28;20025;-65
2024/03/26 00:47:07;;;;;;;6.55;2.88;;;;;;;;;;5040917;28;20664;-64
2024/03/26 00:49:33;;;;;;;3.03;2.60;;;;;;;;;;5040204;28;20029;-64
2024/03/26 00:51:59;;;;;;;2.50;2.20;;;;;;;;;;5038846;28;20036;-64
2024/03/26 00:54:25;;;;;;;3.75;2.60;;;;;;;;;;5039661;28;20033;-64
2024/03/26 00:56:51;;;;;;;2.47;2.28;;;;;;;;;;5039500;28;20049;-64
2024/03/26 00:59:18;;;;;;;3.78;2.60;;;;;;;;;;5044062;28;20436;-64
2024/03/26 01:01:44;;;;;;;3.65;2.67;;;;;;;;;;5037153;28;20099;-64
2024/03/26 01:04:10;;;;;;;2.92;2.00;;;;;;;;;;5043646;28;20029;-64
2024/03/26 01:06:37;;;;;;;3.20;2.70;;;;;;;;;;5036779;28;20417;-64
2024/03/26 01:09:03;;;;;;;9.75;3.00;;;;;;;;;;5038264;28;20120;-64
2024/03/26 01:11:29;;;;;;;5.63;2.85;;;;;;;;;;5039634;28;20497;-64
2024/03/26 01:13:57;;;;;;;2.55;2.25;;;;;;;;;;5039767;28;20057;-64
2024/03/26 01:16:23;;;;;;;3.90;2.70;;;;;;;;;;5033818;28;20481;-64
2024/03/26 01:18:50;;;;;;;5.95;3.33;;;;;;;;;;5041491;28;20033;-64
2024/03/26 01:21:16;;;;;;;7.35;2.55;;;;;;;;;;5038252;28;20052;-64
2024/03/26 01:23:42;;;;;;;4.45;3.22;;;;;;;;;;5037272;28;20819;-64
2024/03/26 01:26:08;;;;;;;5.47;2.70;;;;;;;;;;5041424;28;20112;-64
2024/03/26 01:28:34;;;;;;;5.40;3.17;;;;;;;;;;5036962;28;20082;-64
2024/03/26 01:31:00;;;;;;;4.93;2.60;;;;;;;;;;5036751;28;20025;-64
2024/03/26 01:33:27;;;;;;;5.45;2.83;;;;;;;;;;5043380;28;20031;-64
2024/03/26 01:35:53;;;;;;;5.82;3.13;;;;;;;;;;5034975;28;20036;-64
2024/03/26 01:38:21;;;;;;;2.60;2.15;;;;;;;;;;5040357;28;20040;-64
2024/03/26 01:40:47;;;;;;;11.57;2.70;;;;;;;;;;5033048;28;20034;-64
2024/03/26 01:43:13;;;;;;;9.82;3.13;;;;;;;;;;5034596;28;20040;-64
2024/03/26 01:45:39;;;;;;;2.97;2.22;;;;;;;;;;5038943;28;20550;-64
2024/03/26 01:48:06;;;;;;;4.93;2.40;;;;;;;;;;5037245;28;20026;-64
2024/03/26 01:50:32;;;;;;;5.15;2.13;;;;;;;;;;5038884;28;20497;-64
2024/03/26 01:52:58;;;;;;;12.05;2.60;;;;;;;;;;5039121;28;20125;-64
2024/03/26 01:55:25;;;;;;;3.10;2.80;;;;;;;;;;5043351;28;20388;-64
2024/03/26 01:57:51;;;;;;;5.22;2.17;;;;;;;;;;5037436;28;20052;-64
2024/03/26 02:00:21;;;;;;;3.95;2.25;;;;;;;;;;5039102;28;20113;-64
2024/03/26 02:02:47;;;;;;;4.07;2.90;;;;;;;;;;5044093;28;20044;-64
2024/03/26 02:05:14;;;;;;;2.70;2.03;;;;;;;;;;5033814;28;20033;-64
2024/03/26 02:07:40;;;;;;;4.20;3.15;;;;;;;;;;5034532;28;20025;-64
2024/03/26 02:10:08;;;;;;;3.22;2.47;;;;;;;;;;5038115;28;20036;-64
2024/03/26 02:12:35;;;;;;;3.25;2.38;;;;;;;;;;5034623;28;20025;-63
2024/03/26 02:15:01;;;;;;;5.63;2.45;;;;;;;;;;5043954;28;20033;-64
2024/03/26 02:17:27;;;;;;;4.60;2.30;;;;;;;;;;5038577;28;20126;-64
2024/03/26 02:19:54;;;;;;;2.88;2.13;;;;;;;;;;5038767;28;20112;-64
2024/03/26 02:22:20;;;;;;;1.95;1.85;;;;;;;;;;5034509;28;20024;-63
2024/03/26 02:24:47;;;;;;;2.88;2.17;;;;;;;;;;5044564;28;20025;-64
2024/03/26 02:27:14;;;;;;;2.00;1.90;;;;;;;;;;5041264;28;20032;-63
2024/03/26 02:29:40;;;;;;;1.90;1.80;;;;;;;;;;5038375;28;20061;-62
2024/03/26 02:32:06;;;;;;;3.00;1.83;;;;;;;;;;5039649;28;20420;-63
2024/03/26 02:34:32;;;;;;;4.28;1.70;;;;;;;;;;5034299;28;20106;-63
2024/03/26 02:36:58;;;;;;;2.90;1.80;;;;;;;;;;5040507;28;20032;-63
2024/03/26 02:39:25;;;;;;;2.03;1.92;;;;;;;;;;5035347;28;20049;-63
2024/03/26 02:41:52;;;;;;;2.72;1.85;;;;;;;;;;5039010;28;20528;-63
2024/03/26 02:44:18;;;;;;;2.40;2.20;;;;;;;;;;5032525;28;20473;-63
2024/03/26 02:46:44;;;;;;;3.05;2.45;;;;;;;;;;5040349;28;20491;-63
2024/03/26 02:49:10;;;;;;;3.35;2.00;;;;;;;;;;5038115;28;20017;-64
2024/03/26 02:51:36;;;;;;;1.88;1.77;;;;;;;;;;5037574;28;20357;-63
2024/03/26 02:54:02;;;;;;;3.28;2.08;;;;;;;;;;5044570;28;20025;-65
2024/03/26 02:56:29;;;;;;;3.20;2.58;;;;;;;;;;5039654;28;20036;-63
2024/03/26 02:58:55;;;;;;;1.88;1.77;;;;;;;;;;5043727;28;20087;-63
2024/03/26 03:01:23;;;;;;;1.90;1.80;;;;;;;;;;5034085;28;20025;-64
2024/03/26 03:03:49;;;;;;;5.35;2.40;;;;;;;;;;5033010;28;20028;-64
2024/03/26 03:06:15;;;;;;;7.53;2.38;;;;;;;;;;5036167;28;20026;-64
2024/03/26 03:08:41;;;;;;;2.17;1.70;;;;;;;;;;5030514;28;20033;-64
2024/03/26 03:11:07;;;;;;;2.35;2.15;;;;;;;;;;5037633;28;20022;-63
2024/03/26 03:13:33;;;;;;;3.97;2.63;;;;;;;;;;5039264;28;20033;-64
2024/03/26 03:16:00;;;;;;;5.28;2.13;;;;;;;;;;5038210;28;20027;-64
2024/03/26 03:18:27;;;;;;;3.63;2.97;;;;;;;;;;5034634;28;20025;-64
2024/03/26 03:20:53;;;;;;;2.63;1.92;;;;;;;;;;5038325;28;20229;-63
2024/03/26 03:23:19;;;;;;;2.30;2.08;;;;;;;;;;5041681;28;20511;-63
2024/03/26 03:25:53;;;;;;;8.60;3.08;;;;;;;;;;5038793;28;20056;-63
2024/03/26 03:28:19;;;;;;;2.15;1.95;;;;;;;;;;5032640;28;20025;-63
2024/03/26 03:30:45;;;;;;;3.28;2.40;;;;;;;;;;5039565;28;20300;-63
2024/03/26 03:33:11;;;;;;;6.07;2.38;;;;;;;;;;5043369;28;20032;-63
2024/03/26 03:35:41;;;;;;;2.20;2.00;;;;;;;;;;5038518;28;20021;-63
2024/03/26 03:38:07;;;;;;;2.95;2.30;;;;;;;;;;5033455;28;20314;-63
2024/03/26 03:40:34;;;;;;;3.10;2.40;;;;;;;;;;5042357;28;20042;-64
2024/03/26 03:43:00;;;;;;;3.50;2.20;;;;;;;;;;5036041;28;20488;-63
2024/03/26 03:45:28;;;;;;;4.47;2.50;;;;;;;;;;5030506;28;20501;-64
2024/03/26 03:47:54;;;;;;;2.05;1.95;;;;;;;;;;5046967;28;20415;-64
2024/03/26 03:50:20;;;;;;;2.60;2.40;;;;;;;;;;5044337;28;20392;-64
2024/03/26 03:52:46;;;;;;;2.22;2.03;;;;;;;;;;5046938;28;20032;-64
2024/03/26 03:55:13;;;;;;;2.50;2.10;;;;;;;;;;5039035;28;20033;-63
2024/03/26 03:57:39;;;;;;;5.40;2.42;;;;;;;;;;5054521;28;20032;-64
2024/03/26 04:00:09;;;;;;;3.28;2.20;;;;;;;;;;5034159;28;20021;-63
2024/03/26 04:02:35;;;;;;;6.22;1.95;;;;;;;;;;5030641;28;20116;-63
2024/03/26 04:05:02;;;;;;;2.05;1.85;;;;;;;;;;5041008;28;20017;-63
2024/03/26 04:07:28;;;;;;;1.80;1.67;;;;;;;;;;5038495;28;20444;-63
2024/03/26 04:09:54;;;;;;;3.65;2.53;;;;;;;;;;5052798;28;20076;-64
2024/03/26 04:12:21;;;;;;;2.15;1.95;;;;;;;;;;5034307;28;20060;-63
2024/03/26 04:14:47;;;;;;;6.55;2.67;;;;;;;;;;5035242;28;20500;-63
2024/03/26 04:17:13;;;;;;;5.78;2.53;;;;;;;;;;5033424;28;20152;-63
2024/03/26 04:19:39;;;;;;;4.60;2.42;;;;;;;;;;5032562;28;20139;-64
2024/03/26 04:22:05;;;;;;;5.50;2.28;;;;;;;;;;5042525;28;20044;-63
2024/03/26 04:24:31;;;;;;;3.83;3.00;;;;;;;;;;5044687;28;20123;-63
2024/03/26 04:26:58;;;;;;;5.15;2.60;;;;;;;;;;5040858;28;20543;-63
2024/03/26 04:29:24;;;;;;;2.67;2.47;;;;;;;;;;5051108;28;20048;-63
2024/03/26 04:31:50;;;;;;;2.53;2.28;;;;;;;;;;5036831;28;20453;-63
2024/03/26 04:34:16;;;;;;;4.93;2.75;;;;;;;;;;5041748;28;20032;-64
2024/03/26 04:36:43;;;;;;;3.08;2.53;;;;;;;;;;5038244;28;20045;-63
2024/03/26 04:39:09;;;;;;;2.17;1.98;;;;;;;;;;5037660;28;20041;-64
2024/03/26 04:41:35;;;;;;;2.40;1.95;;;;;;;;;;5037201;28;20151;-64
2024/03/26 04:44:02;;;;;;;3.38;2.33;;;;;;;;;;5032496;28;20032;-65
2024/03/26 04:46:28;;;;;;;3.75;2.58;;;;;;;;;;5043150;28;20020;-63
2024/03/26 04:48:54;;;;;;;5.80;2.70;;;;;;;;;;5037012;28;20079;-64
2024/03/26 04:51:21;;;;;;;3.63;2.30;;;;;;;;;;5041951;28;20040;-63
2024/03/26 04:53:47;;;;;;;2.58;2.38;;;;;;;;;;5044724;28;20122;-63
2024/03/26 04:56:14;;;;;;;2.80;2.15;;;;;;;;;;5037925;28;20032;-63
2024/03/26 04:58:40;;;;;;;5.32;2.05;;;;;;;;;;5037105;28;20032;-64
2024/03/26 05:01:06;;;;;;;3.63;2.55;;;;;;;;;;5032192;28;20473;-63
2024/03/26 05:03:33;;;;;;;2.40;2.03;;;;;;;;;;5040585;28;20120;-63
2024/03/26 05:05:59;;;;;;;4.25;2.10;;;;;;;;;;5038476;28;20041;-63
2024/03/26 05:08:25;;;;;;;3.22;2.13;;;;;;;;;;5037857;28;20541;-63
2024/03/26 05:10:51;;;;;;;2.05;1.88;;;;;;;;;;5038922;28;20032;-64
2024/03/26 05:13:17;;;;;;;5.72;2.75;;;;;;;;;;5032928;28;20481;-63
2024/03/26 05:15:44;;;;;;;2.40;2.20;;;;;;;;;;5034638;28;20032;-63
2024/03/26 05:18:10;;;;;;;4.97;1.88;;;;;;;;;;5037326;28;20100;-63
2024/03/26 05:20:36;;;;;;;8.60;2.55;;;;;;;;;;5032117;28;20412;-64
2024/03/26 05:23:02;;;;;;;3.45;3.15;;;;;;;;;;5038817;28;20026;-63
2024/03/26 05:25:28;;;;;;;4.43;2.67;;;;;;;;;;5032115;28;20092;-63
2024/03/26 05:27:54;;;;;;;5.70;2.83;;;;;;;;;;5042055;28;20203;-63
2024/03/26 05:30:20;;;;;;;5.50;3.67;;;;;;;;;;5038443;28;20021;-63
2024/03/26 05:32:46;;;;;;;5.00;3.05;;;;;;;;;;5034921;28;20569;-63
2024/03/26 05:35:13;;;;;;;10.48;3.45;;;;;;;;;;5036296;28;20069;-63
2024/03/26 05:37:39;;;;;;;8.65;3.90;;;;;;;;;;5031793;28;20506;-66
2024/03/26 05:40:05;;;;;;;8.68;3.90;;;;;;;;;;5032160;28;20025;-63
2024/03/26 05:42:32;;;;;;;8.40;3.95;;;;;;;;;;5030224;28;20123;-63
2024/03/26 05:44:59;;;;;;;4.97;3.20;;;;;;;;;;5036732;28;20052;-63
2024/03/26 05:47:25;;;;;;;8.82;3.65;;;;;;;;;;5040268;28;20027;-63
2024/03/26 05:49:51;;;;;;;4.38;3.60;;;;;;;;;;5039326;28;20025;-63
2024/03/26 05:52:17;;;;;;;6.95;4.07;;;;;;;;;;5034932;28;20036;-63
2024/03/26 05:54:43;;;;;;;6.45;4.18;;;;;;;;;;5040153;28;20176;-63
2024/03/26 05:57:09;;;;;;;7.28;4.57;;;;;;;;;;5040540;28;20021;-63
2024/03/26 05:59:35;;;;;;;7.13;4.13;;;;;;;;;;5040375;28;20074;-63
2024/03/26 06:02:01;;;;;;;17.65;4.07;;;;;;;;;;5035817;28;20436;-62
2024/03/26 06:04:27;;;;;;;17.48;5.55;;;;;;;;;;5037076;28;20363;-63
2024/03/26 06:06:54;;;;;;;15.45;6.35;;;;;;;;;;5041209;28;20045;-63
2024/03/26 06:09:20;;;;;;;8.02;6.07;;;;;;;;;;5036524;28;20028;-63
2024/03/26 06:11:46;;;;;;;7.00;4.30;;;;;;;;;;5036273;28;20037;-63
2024/03/26 06:14:12;;;;;;;9.30;4.90;;;;;;;;;;5030571;28;20017;-63
2024/03/26 06:16:38;;;;;;;20.00;7.68;;;;;;;;;;5033738;28;20028;-63
2024/03/26 06:19:04;;;;;;;9.82;5.75;;;;;;;;;;5034381;28;20386;-63
2024/03/26 06:21:30;;;;;;;14.57;6.53;;;;;;;;;;5039835;28;20469;-63
2024/03/26 06:23:56;;;;;;;9.40;5.57;;;;;;;;;;5040630;28;20033;-65
2024/03/26 06:26:23;;;;;;;9.80;5.82;;;;;;;;;;5042824;28;20056;-63
2024/03/26 06:28:49;;;;;;;11.48;6.53;;;;;;;;;;5041470;28;20055;-63
2024/03/26 06:31:15;;;;;;;14.18;5.97;;;;;;;;;;5023709;28;20489;-63
2024/03/26 06:33:41;;;;;;;16.40;7.70;;;;;;;;;;5043092;28;20034;-63
2024/03/26 06:36:08;;;;;;;14.38;7.35;;;;;;;;;;5036783;28;20037;-63
2024/03/26 06:38:34;;;;;;;11.00;6.25;;;;;;;;;;5043840;28;20045;-63
2024/03/26 06:41:01;;;;;;;13.90;7.38;;;;;;;;;;5031763;28;20299;-63
2024/03/26 06:43:27;;;;;;;13.90;6.65;;;;;;;;;;5029572;28;20460;-63
2024/03/26 06:45:53;;;;;;;10.32;5.72;;;;;;;;;;5032803;28;20101;-62
2024/03/26 06:48:19;;;;;;;16.02;7.38;;;;;;;;;;5033947;28;20113;-63
2024/03/26 06:50:45;;;;;;;20.20;8.85;;;;;;;;;;5033774;28;20436;-63
2024/03/26 06:53:11;;;;;;;18.58;7.43;;;;;;;;;;5033786;28;20035;-63
2024/03/26 06:55:38;;;;;;;13.25;6.90;;;;;;;;;;5039678;28;20028;-63
2024/03/26 06:58:04;;;;;;;16.60;7.28;;;;;;;;;;5026340;28;20037;-63
2024/03/26 07:00:30;;;;;;;14.63;6.95;;;;;;;;;;5031142;28;20033;-63
2024/03/26 07:02:57;;;;;;;23.10;7.10;;;;;;;;;;5029648;28;20037;-63
2024/03/26 07:05:23;;;;;;;14.35;7.38;;;;;;;;;;5033998;28;20424;-63
2024/03/26 07:07:49;;;;;;;19.02;7.03;;;;;;;;;;5043618;28;20031;-63
2024/03/26 07:10:16;;;;;;;17.10;6.00;;;;;;;;;;5038543;28;20059;-63
2024/03/26 07:12:43;;;;;;;14.05;7.18;;;;;;;;;;5038189;28;20029;-63
2024/03/26 07:15:10;;;;;;;12.05;6.57;;;;;;;;;;5034084;28;20477;-63
2024/03/26 07:17:38;;;;;;;12.00;5.90;;;;;;;;;;5045593;28;20389;-63
2024/03/26 07:20:05;;;;;;;15.70;6.22;;;;;;;;;;5030442;28;20592;-63
2024/03/26 07:22:31;;;;;;;10.98;6.47;;;;;;;;;;5033419;28;20570;-63
2024/03/26 07:24:57;;;;;;;11.00;5.97;;;;;;;;;;5037519;28;20017;-63
2024/03/26 07:27:23;;;;;;;14.77;6.32;;;;;;;;;;5037548;28;20528;-63
2024/03/26 07:29:50;;;;;;;11.88;5.70;;;;;;;;;;5040928;28;20041;-63
2024/03/26 07:32:16;;;;;;;10.70;7.15;;;;;;;;;;5045959;28;20032;-64
2024/03/26 07:34:42;;;;;;;8.82;6.10;;;;;;;;;;5043238;28;20052;-65
2024/03/26 07:37:08;;;;;;;12.07;6.97;;;;;;;;;;5031201;28;20039;-67
2024/03/26 07:39:35;;;;;;;18.52;6.65;;;;;;;;;;5031993;28;20037;-64
2024/03/26 07:42:02;;;;;;;12.80;7.15;;;;;;;;;;5030704;28;20025;-65
2024/03/26 07:44:29;;;;;;;16.17;7.03;;;;;;;;;;5038702;28;20792;-65
2024/03/26 07:46:55;;;;;;;13.18;7.50;;;;;;;;;;5036490;28;20108;-64
2024/03/26 07:49:21;;;;;;;16.05;6.20;;;;;;;;;;5040729;28;20037;-64
2024/03/26 07:51:48;;;;;;;11.82;7.32;;;;;;;;;;5034282;28;20025;-64
2024/03/26 07:54:14;;;;;;;13.00;6.78;;;;;;;;;;5033064;28;20017;-64
2024/03/26 07:56:40;;;;;;;18.10;8.25;;;;;;;;;;5042118;28;20025;-64
2024/03/26 07:59:06;;;;;;;11.95;7.18;;;;;;;;;;5030895;28;20041;-65
2024/03/26 08:01:32;;;;;;;15.50;7.97;;;;;;;;;;5044232;28;20107;-64
2024/03/26 08:03:58;;;;;;;13.80;9.02;;;;;;;;;;5038959;28;20037;-64
2024/03/26 08:06:25;;;;;;;11.30;6.95;;;;;;;;;;5046558;28;20025;-64
2024/03/26 08:08:51;;;;;;;21.20;9.02;;;;;;;;;;5042167;28;20120;-64
2024/03/26 08:11:20;;;;;;;12.73;6.93;;;;;;;;;;5042426;28;20025;-65
2024/03/26 08:13:46;;;;;;;16.50;8.07;;;;;;;;;;5042137;28;20032;-65
2024/03/26 08:16:12;;;;;;;19.63;7.60;;;;;;;;;;5032130;28;20105;-65
2024/03/26 08:18:38;;;;;;;18.27;8.27;;;;;;;;;;5033865;28;20526;-64
2024/03/26 08:21:04;;;;;;;18.42;8.25;;;;;;;;;;5030392;28;20029;-64
2024/03/26 08:23:31;;;;;;;20.98;8.43;;;;;;;;;;5051104;28;20035;-65
2024/03/26 08:25:57;;;;;;;21.23;8.52;;;;;;;;;;5042039;28;20081;-64
2024/03/26 08:28:24;;;;;;;26.45;8.77;;;;;;;;;;5043302;28;20108;-65
2024/03/26 08:30:50;;;;;;;13.45;7.22;;;;;;;;;;5041363;28;20130;-65
2024/03/26 08:33:16;;;;;;;10.43;8.25;;;;;;;;;;5035715;28;20060;-65
2024/03/26 08:35:43;;;;;;;12.13;7.30;;;;;;;;;;5028671;28;20025;-65
2024/03/26 08:38:09;;;;;;;16.45;6.82;;;;;;;;;;5039730;28;20124;-65
2024/03/26 08:40:38;;;;;;;13.85;7.53;;;;;;;;;;5042421;28;20090;-65
2024/03/26 08:43:04;;;;;;;13.55;6.50;;;;;;;;;;5033448;28;20021;-65
2024/03/26 08:45:31;;;;;;;16.48;6.97;;;;;;;;;;5042354;28;20025;-65
2024/03/26 08:47:58;;;;;;;14.35;7.28;;;;;;;;;;5035848;28;20025;-65
2024/03/26 08:50:24;;;;;;;13.45;6.25;;;;;;;;;;5035621;28;20512;-65
2024/03/26 08:52:50;;;;;;;14.88;7.93;;;;;;;;;;5040281;28;20029;-65
2024/03/26 08:55:16;;;;;;;15.75;8.05;;;;;;;;;;5034493;28;20464;-65
2024/03/26 08:57:42;;;;;;;10.35;6.72;;;;;;;;;;5027162;28;20029;-65
2024/03/26 09:00:12;;;;;;;13.77;6.03;;;;;;;;;;5038995;28;20031;-65
2024/03/26 09:02:39;;;;;;;16.98;7.10;;;;;;;;;;5040992;28;20033;-65
2024/03/26 09:05:05;;;;;;;14.68;6.93;;;;;;;;;;5032807;28;20044;-65
2024/03/26 09:07:31;;;;;;;30.25;16.10;;;;;;;;;;5030355;28;20072;-65
2024/03/26 09:09:57;;;;;;;15.05;7.38;;;;;;;;;;5032164;28;20032;-65
2024/03/26 09:12:23;;;;;;;13.25;6.78;;;;;;;;;;5037677;28;20041;-65
2024/03/26 09:14:49;;;;;;;16.60;8.68;;;;;;;;;;5035056;28;20465;-65
2024/03/26 09:17:15;;;;;;;13.60;7.05;;;;;;;;;;5034452;28;20124;-65
2024/03/26 09:19:41;;;;;;;20.08;6.82;;;;;;;;;;5034960;28;20025;-65
2024/03/26 09:22:08;;;;;;;10.02;7.13;;;;;;;;;;5027754;28;20138;-65
2024/03/26 09:24:35;;;;;;;17.85;7.47;;;;;;;;;;5027195;28;20096;-65
2024/03/26 09:27:01;;;;;;;9.63;4.93;;;;;;;;;;5034165;28;20362;-65
2024/03/26 09:29:28;;;;;;;9.70;5.72;;;;;;;;;;5037880;28;20032;-65
2024/03/26 09:31:54;;;;;;;19.58;8.15;;;;;;;;;;5040314;28;20056;-65
2024/03/26 09:34:21;;;;;;;13.55;6.78;;;;;;;;;;5030933;28;20484;-64
2024/03/26 09:36:47;;;;;;;11.20;6.95;;;;;;;;;;5034939;28;20025;-65
2024/03/26 09:39:13;;;;;;;9.43;5.55;;;;;;;;;;5032211;28;20118;-65
2024/03/26 09:41:39;;;;;;;9.77;6.18;;;;;;;;;;5041798;28;20031;-65
2024/03/26 09:44:05;;;;;;;10.38;7.28;;;;;;;;;;5026393;28;20064;-64
2024/03/26 09:46:34;;;;;;;18.13;6.55;;;;;;;;;;5025065;28;20040;-64
2024/03/26 09:49:00;;;;;;;12.50;7.15;;;;;;;;;;5029091;28;20033;-64
2024/03/26 09:51:27;;;;;;;13.85;6.28;;;;;;;;;;5040871;28;20225;-65
2024/03/26 09:53:55;;;;;;;14.73;7.40;;;;;;;;;;5043884;28;20029;-64
2024/03/26 09:56:22;;;;;;;18.23;7.63;;;;;;;;;;5028064;28;20026;-64
2024/03/26 09:58:48;;;;;;;17.13;9.48;;;;;;;;;;5029197;28;20025;-64
2024/03/26 10:01:17;;;;;;;23.98;6.32;;;;;;;;;;5057226;28;20029;-65
2024/03/26 10:03:43;;;;;;;14.35;6.78;;;;;;;;;;5045190;28;20094;-64
2024/03/26 10:06:13;;;;;;;14.07;9.00;;;;;;;;;;5036663;28;20560;-64
2024/03/26 10:08:39;;;;;;;11.65;7.35;;;;;;;;;;5044437;28;20029;-66
2024/03/26 10:11:05;;;;;;;18.17;8.07;;;;;;;;;;5040499;28;20022;-64
2024/03/26 10:13:31;;;;;;;14.23;7.68;;;;;;;;;;5032705;28;20055;-64
2024/03/26 10:15:57;;;;;;;11.48;6.80;;;;;;;;;;5030908;28;20511;-64
2024/03/26 10:18:24;;;;;;;14.13;8.27;;;;;;;;;;5035993;28;20030;-64
2024/03/26 10:20:50;;;;;;;13.68;6.35;;;;;;;;;;5028393;28;20038;-64
2024/03/26 10:23:16;;;;;;;12.25;6.97;;;;;;;;;;5030678;28;20485;-64
2024/03/26 10:25:42;;;;;;;22.65;8.77;;;;;;;;;;5031837;28;20112;-64
2024/03/26 10:28:09;;;;;;;14.82;7.88;;;;;;;;;;5041442;28;20030;-67
2024/03/26 10:30:35;;;;;;;15.02;8.15;;;;;;;;;;5035771;28;20240;-67
2024/03/26 10:33:01;;;;;;;13.38;7.82;;;;;;;;;;5025111;28;20105;-67
2024/03/26 10:35:27;;;;;;;24.58;9.00;;;;;;;;;;5025305;28;20067;-67
2024/03/26 10:37:54;;;;;;;24.70;10.13;;;;;;;;;;5025598;28;20068;-67
2024/03/26 10:40:33;;;;;;;20.70;9.95;;;;;;;;;;5025496;28;20030;-67
2024/03/26 10:42:59;;;;;;;17.15;7.90;;;;;;;;;;5027609;28;20096;-68
2024/03/26 10:45:26;;;;;;;13.10;8.32;;;;;;;;;;5034182;28;20071;-67
2024/03/26 10:47:55;;;;;;;24.25;9.75;;;;;;;;;;5022599;28;20025;-67
2024/03/26 10:50:22;;;;;;;12.60;8.25;;;;;;;;;;5024207;28;20032;-67
2024/03/26 10:52:48;;;;;;;16.42;7.25;;;;;;;;;;5033269;28;20190;-67
2024/03/26 10:55:15;;;;;;;19.70;9.40;;;;;;;;;;5033829;28;20321;-67
2024/03/26 10:57:48;;;;;;;18.13;8.98;;;;;;;;;;5038320;28;20029;-67
2024/03/26 11:00:15;;;;;;;16.83;9.02;;;;;;;;;;5022067;28;20041;-67
2024/03/26 11:02:52;;;;;;;21.98;8.57;;;;;;;;;;5023117;28;20035;-67
2024/03/26 11:05:19;;;;;;;24.27;7.93;;;;;;;;;;5028489;28;20025;-67
2024/03/26 11:07:45;;;;;;;17.63;8.07;;;;;;;;;;5031841;28;20480;-67
2024/03/26 11:10:14;;;;;;;17.33;9.05;;;;;;;;;;5019216;28;20029;-67
2024/03/26 11:12:41;;;;;;;17.23;9.73;;;;;;;;;;5031113;28;20539;-66
2024/03/26 11:15:24;;;;;;;19.83;7.60;;;;;;;;;;5027095;28;20056;-67
2024/03/26 11:17:53;;;;;;;13.75;8.13;;;;;;;;;;5028922;28;20029;-67
2024/03/26 11:20:23;;;;;;;17.30;8.18;;;;;;;;;;5029311;28;20402;-67
2024/03/26 11:23:18;;;;;;;14.50;8.40;;;;;;;;;;5029129;28;20034;-67
2024/03/26 11:25:53;;;;;;;20.38;10.65;;;;;;;;;;5024929;28;20205;-67
2024/03/26 11:28:21;;;;;;;18.50;9.02;;;;;;;;;;5033567;28;20104;-67
2024/03/26 11:30:47;;;;;;;16.52;8.77;;;;;;;;;;5034217;28;20580;-67
2024/03/26 11:33:22;;;;;;;25.67;9.10;;;;;;;;;;5039811;28;20041;-67
2024/03/26 11:35:48;;;;;;;15.90;10.38;;;;;;;;;;5039500;28;20374;-67
2024/03/26 11:38:14;;;;;;;26.98;11.23;;;;;;;;;;5036131;28;20092;-67
2024/03/26 11:40:41;;;;;;;20.95;9.85;;;;;;;;;;5028523;28;20021;-67
2024/03/26 11:43:07;;;;;;;21.17;10.20;;;;;;;;;;5034330;28;20112;-67
2024/03/26 11:45:33;;;;;;;14.13;8.18;;;;;;;;;;5037788;28;20180;-67
2024/03/26 11:47:59;;;;;;;17.85;9.60;;;;;;;;;;5032146;28;20565;-67
2024/03/26 11:50:26;;;;;;;19.73;9.20;;;;;;;;;;5022636;28;20030;-67
2024/03/26 11:52:52;;;;;;;18.10;9.15;;;;;;;;;;5031945;28;20040;-67
2024/03/26 11:55:18;;;;;;;27.20;10.35;;;;;;;;;;5038633;28;20048;-67
2024/03/26 11:57:44;;;;;;;14.77;9.20;;;;;;;;;;5028424;28;20106;-68
2024/03/26 12:00:11;;;;;;;20.08;9.15;;;;;;;;;;5040677;28;20484;-68
2024/03/26 12:02:37;;;;;;;19.30;9.85;;;;;;;;;;5032990;28;20308;-68
2024/03/26 12:05:04;;;;;;;27.50;10.27;;;;;;;;;;5026544;28;20353;-68
2024/03/26 12:07:30;;;;;;;19.48;10.45;;;;;;;;;;5032335;28;20033;-68
2024/03/26 12:09:57;;;;;;;16.90;10.45;;;;;;;;;;5036401;28;20041;-67
2024/03/26 12:12:23;;;;;;;15.07;8.55;;;;;;;;;;5027082;28;20071;-68
2024/03/26 12:14:50;;;;;;;28.67;12.15;;;;;;;;;;5039496;28;20172;-68
2024/03/26 12:17:16;;;;;;;14.65;9.73;;;;;;;;;;5032845;28;20472;-68
2024/03/26 12:19:43;;;;;;;21.90;9.10;;;;;;;;;;5033397;28;20536;-68
2024/03/26 12:22:10;;;;;;;26.90;13.45;;;;;;;;;;5043266;28;20033;-68
2024/03/26 12:24:37;;;;;;;20.23;8.93;;;;;;;;;;5035324;28;20163;-68
2024/03/26 12:27:07;;;;;;;16.90;9.23;;;;;;;;;;5047564;28;20082;-67
2024/03/26 12:29:34;;;;;;;12.57;8.15;;;;;;;;;;5047080;28;20091;-68
2024/03/26 12:32:00;;;;;;;17.73;8.93;;;;;;;;;;5041162;28;20028;-67
2024/03/26 12:34:27;;;;;;;17.15;9.30;;;;;;;;;;5038420;28;20025;-67
2024/03/26 12:36:53;;;;;;;15.52;7.22;;;;;;;;;;5036463;28;20069;-68
2024/03/26 12:39:20;;;;;;;19.38;10.20;;;;;;;;;;5042947;28;20795;-68
2024/03/26 12:41:46;;;;;;;14.88;7.55;;;;;;;;;;5032341;28;20032;-67
2024/03/26 12:44:13;;;;;;;25.10;8.48;;;;;;;;;;5032550;28;20057;-67
2024/03/26 12:46:39;;;;;;;14.13;8.27;;;;;;;;;;5037881;28;20517;-68
2024/03/26 12:49:06;;;;;;;19.83;9.73;;;;;;;;;;5031149;28;20029;-69
2024/03/26 12:51:32;;;;;;;17.95;7.65;;;;;;;;;;5030691;28;20027;-69
2024/03/26 12:54:06;;;;;;;14.88;8.50;;;;;;;;;;5032721;28;20045;-68
2024/03/26 12:56:32;;;;;;;23.45;7.30;;;;;;;;;;5029803;28;20496;-69
2024/03/26 12:58:59;;;;;;;15.15;7.43;;;;;;;;;;5031020;28;20033;-68
2024/03/26 13:01:26;;;;;;;11.35;7.45;;;;;;;;;;5044519;28;20083;-69
2024/03/26 13:03:52;;;;;;;12.52;7.30;;;;;;;;;;5046887;28;20029;-69
2024/03/26 13:06:18;;;;;;;14.73;7.50;;;;;;;;;;5035348;28;20035;-68
2024/03/26 13:08:44;;;;;;;12.43;7.32;;;;;;;;;;5038700;28;20131;-68
2024/03/26 13:11:11;;;;;;;19.00;9.18;;;;;;;;;;5035187;28;20033;-68
2024/03/26 13:13:38;;;;;;;17.05;8.70;;;;;;;;;;5040309;28;20079;-68
2024/03/26 13:16:04;;;;;;;17.00;6.82;;;;;;;;;;5027923;28;20021;-68
2024/03/26 13:18:31;;;;;;;9.55;5.57;;;;;;;;;;5038769;28;20048;-69
2024/03/26 13:20:57;;;;;;;19.83;7.65;;;;;;;;;;5042228;28;20053;-68
2024/03/26 13:23:23;;;;;;;13.98;6.40;;;;;;;;;;5037093;28;20033;-68
2024/03/26 13:25:49;;;;;;;15.15;5.40;;;;;;;;;;5029558;28;20128;-69
2024/03/26 13:28:15;;;;;;;8.18;6.07;;;;;;;;;;5036249;28;20484;-68
2024/03/26 13:30:42;;;;;;;9.15;5.10;;;;;;;;;;5044659;28;20025;-68
2024/03/26 13:33:09;;;;;;;12.90;6.97;;;;;;;;;;5030569;28;20064;-69
2024/03/26 13:35:36;;;;;;;12.48;6.93;;;;;;;;;;5040244;28;20037;-68
2024/03/26 13:38:02;;;;;;;10.43;6.70;;;;;;;;;;5029911;28;20079;-68
2024/03/26 13:40:28;;;;;;;20.20;6.90;;;;;;;;;;5036819;28;20050;-68
2024/03/26 13:42:55;;;;;;;14.05;5.00;;;;;;;;;;5030822;28;20033;-68
2024/03/26 13:45:21;;;;;;;9.50;5.80;;;;;;;;;;5037832;28;20032;-68
2024/03/26 13:47:47;;;;;;;10.73;6.32;;;;;;;;;;5026586;28;20028;-69
2024/03/26 13:50:13;;;;;;;14.57;5.28;;;;;;;;;;5030712;28;20029;-68
2024/03/26 13:52:39;;;;;;;13.77;5.38;;;;;;;;;;5032710;28;20029;-68
2024/03/26 13:55:06;;;;;;;7.60;5.25;;;;;;;;;;5034120;28;20394;-68
2024/03/26 13:57:32;;;;;;;8.05;5.57;;;;;;;;;;5033952;28;20032;-68
2024/03/26 13:59:58;;;;;;;10.20;4.57;;;;;;;;;;5039177;28;20401;-67
2024/03/26 14:02:24;;;;;;;11.05;5.65;;;;;;;;;;5040459;28;21895;-68
2024/03/26 14:04:50;;;;;;;6.82;5.13;;;;;;;;;;5037230;28;20021;-68
2024/03/26 14:07:16;;;;;;;6.50;5.60;;;;;;;;;;5029829;28;20022;-68
2024/03/26 14:09:43;;;;;;;16.20;5.20;;;;;;;;;;5037006;28;20021;-68
2024/03/26 14:12:10;;;;;;;14.73;5.60;;;;;;;;;;5036402;28;20028;-68
2024/03/26 14:14:37;;;;;;;13.40;5.90;;;;;;;;;;5029521;28;20025;-68
2024/03/26 14:17:04;;;;;;;12.57;7.75;;;;;;;;;;5032497;28;20029;-68
2024/03/26 14:19:30;;;;;;;15.82;8.57;;;;;;;;;;5050079;28;20041;-68
2024/03/26 14:21:57;;;;;;;21.23;7.13;;;;;;;;;;5032237;28;20041;-67
2024/03/26 14:24:29;;;;;;;10.40;5.60;;;;;;;;;;5033696;28;20060;-67
2024/03/26 14:26:56;;;;;;;9.13;5.53;;;;;;;;;;5039841;28;20033;-68
2024/03/26 14:29:24;;;;;;;12.15;5.75;;;;;;;;;;5035343;28;20135;-68
2024/03/26 14:31:50;;;;;;;10.60;6.95;;;;;;;;;;5029437;28;20345;-67